Time;durP1;ratioP1;P1;durP2;ratioP2;P2;SDS_P1;SDS_P2;PMS_P1;PMS_P2;Temp;Humidity;BMP_temperature;BMP_pressure;BME280_temperature;BME280_humidity;BME280_pressure;Samples;Min_cycle;Max_cycle;Signal;HPM_P1;HPM_P2
2021/01/26 00:00:21;;;;;;;16.93;7.53;;;;;;;-0.86;75.72;98195.41;119847;1144;65275;-85
2021/01/26 00:03:05;;;;;;;21.20;10.50;;;;;;;-0.92;76.22;98201.74;119904;1144;65128;-84
2021/01/26 00:05:31;;;;;;;22.53;10.73;;;;;;;-0.98;75.99;98196.73;119870;1143;65059;-87
2021/01/26 00:07:58;;;;;;;28.23;12.23;;;;;;;-1.01;75.76;98203.89;119963;1144;65089;-87
2021/01/26 00:10:25;;;;;;;25.33;12.20;;;;;;;-1.06;76.07;98192.72;119979;1143;65051;-84
2021/01/26 00:12:51;;;;;;;28.10;12.53;;;;;;;-1.06;75.70;98192.72;120032;1144;65097;-85
2021/01/26 00:15:17;;;;;;;23.97;12.53;;;;;;;-1.06;75.96;98190.95;120009;1144;65266;-86
2021/01/26 00:17:44;;;;;;;24.90;12.37;;;;;;;-1.05;76.30;98190.03;120194;1144;65089;-85
2021/01/26 00:20:12;;;;;;;27.10;14.00;;;;;;;-1.02;76.00;98179.42;120016;1144;65108;-86
2021/01/26 00:22:40;;;;;;;24.10;13.50;;;;;;;-1.00;75.72;98182.85;119942;1144;65059;-85
2021/01/26 00:25:09;;;;;;;27.75;12.80;;;;;;;-1.02;76.47;98184.66;119909;1144;65252;-85
2021/01/26 00:27:35;;;;;;;21.13;10.90;;;;;;;-1.02;76.16;98194.29;120013;1143;65012;-85
2021/01/26 00:30:06;;;;;;;28.93;12.93;;;;;;;-1.02;75.83;98196.91;120211;1143;65175;-86
2021/01/26 00:32:33;;;;;;;28.47;12.63;;;;;;;-1.02;76.26;98189.05;119985;1144;65108;-88
2021/01/26 00:34:59;;;;;;;25.10;11.50;;;;;;;-1.07;76.38;98191.88;119915;1142;65093;-84
2021/01/26 00:37:26;;;;;;;29.53;13.67;;;;;;;-1.04;76.02;98190.88;119894;1144;65163;-86
2021/01/26 00:39:53;;;;;;;29.47;13.63;;;;;;;-1.05;76.71;98191.80;119869;1144;65526;-86
2021/01/26 00:42:19;;;;;;;26.03;14.33;;;;;;;-1.08;75.72;98192.79;120153;1144;65181;-87
2021/01/26 00:44:46;;;;;;;29.53;13.77;;;;;;;-1.08;75.82;98195.41;119975;1144;65194;-85
2021/01/26 00:47:12;;;;;;;32.90;14.93;;;;;;;-1.11;75.92;98191.12;120183;1144;65657;-83
2021/01/26 00:49:39;;;;;;;34.30;14.83;;;;;;;-1.13;76.55;98197.35;119947;1144;65159;-88
2021/01/26 00:52:08;;;;;;;25.95;12.70;;;;;;;-1.15;76.46;98212.25;119883;1144;65111;-85
2021/01/26 00:54:35;;;;;;;34.70;14.50;;;;;;;-1.14;76.45;98198.27;119900;1144;65047;-85
2021/01/26 00:57:04;;;;;;;37.23;15.83;;;;;;;-1.13;75.91;98202.59;119880;1144;65069;-85
2021/01/26 00:59:32;;;;;;;24.23;12.87;;;;;;;-1.13;76.59;98219.16;120090;1143;65271;-86
2021/01/26 01:01:59;;;;;;;28.53;14.23;;;;;;;-1.14;75.95;98221.84;120218;1142;65117;-84
2021/01/26 01:04:26;;;;;;;30.33;15.33;;;;;;;-1.13;75.77;98229.64;119899;1144;65236;-85
2021/01/26 01:06:53;;;;;;;26.77;13.40;;;;;;;-1.11;76.52;98217.33;119935;1143;65092;-89
2021/01/26 01:09:19;;;;;;;33.03;14.50;;;;;;;-1.05;76.80;98224.10;119896;1144;65088;-88
2021/01/26 01:11:46;;;;;;;27.10;13.57;;;;;;;-0.97;76.93;98221.17;119911;1143;65086;-85
2021/01/26 01:14:12;;;;;;;30.47;14.23;;;;;;;-0.91;76.99;98224.41;119888;1144;65169;-86
2021/01/26 01:16:39;;;;;;;34.53;13.00;;;;;;;-0.84;76.67;98222.40;120277;1143;65094;-83
2021/01/26 01:19:05;;;;;;;27.85;14.80;;;;;;;-0.80;75.90;98226.63;119717;1143;65088;-84
2021/01/26 01:21:31;;;;;;;31.43;15.33;;;;;;;-0.77;75.71;98228.25;119694;1144;65057;-84
2021/01/26 01:23:58;;;;;;;31.70;14.97;;;;;;;-0.72;76.31;98219.30;119863;1144;65172;-85
2021/01/26 01:26:24;;;;;;;27.77;14.80;;;;;;;-0.69;76.59;98216.56;120177;1143;65164;-84
2021/01/26 01:28:50;;;;;;;30.70;14.60;;;;;;;-0.66;76.69;98212.95;119929;1144;65092;-84
2021/01/26 01:31:17;;;;;;;31.80;16.53;;;;;;;-0.66;76.44;98208.56;119869;1144;65082;-86
2021/01/26 01:33:43;;;;;;;31.80;15.47;;;;;;;-0.62;76.57;98204.91;119915;1143;65075;-85
2021/01/26 01:36:09;;;;;;;32.40;13.83;;;;;;;-0.59;75.84;98198.67;119867;1144;65194;-88
2021/01/26 01:38:36;;;;;;;24.47;13.77;;;;;;;-0.57;76.06;98207.35;120025;1144;65137;-84
2021/01/26 01:41:02;;;;;;;32.37;15.27;;;;;;;-0.56;76.82;98206.44;120154;1142;65433;-85
2021/01/26 01:43:29;;;;;;;26.80;14.50;;;;;;;-0.52;75.99;98207.14;119890;1144;65002;-87
2021/01/26 01:45:56;;;;;;;28.25;13.30;;;;;;;-0.50;76.81;98214.05;119941;1143;65199;-84
2021/01/26 01:48:26;;;;;;;29.92;15.60;;;;;;;-0.47;76.25;98215.69;120379;1143;65162;-88
2021/01/26 01:50:57;;;;;;;23.70;13.53;;;;;;;-0.43;76.71;98212.88;119904;1144;65473;-86
2021/01/26 01:53:30;;;;;;;27.30;13.63;;;;;;;-0.42;76.15;98221.60;119929;1141;65089;-84
2021/01/26 01:56:03;;;;;;;28.30;15.07;;;;;;;-0.42;76.17;98221.60;119923;1142;65111;-85
2021/01/26 01:58:36;;;;;;;28.50;15.37;;;;;;;-0.44;76.88;98215.58;120317;1144;65152;-86
2021/01/26 02:01:09;;;;;;;28.23;16.07;;;;;;;-0.45;76.10;98212.06;119886;1142;65148;-89
2021/01/26 02:03:42;;;;;;;28.90;14.50;;;;;;;-0.48;75.96;98217.45;119838;1143;65110;-86
2021/01/26 02:06:10;;;;;;;35.03;15.47;;;;;;;-0.49;76.54;98215.75;120307;1144;64986;-87
2021/01/26 02:08:51;;;;;;;26.20;14.33;;;;;;;-0.49;76.49;98215.75;120064;1143;65172;-86
2021/01/26 02:11:22;;;;;;;27.77;14.10;;;;;;;-0.51;77.13;98222.81;119894;1144;65095;-87
2021/01/26 02:13:49;;;;;;;25.30;14.00;;;;;;;-0.55;75.92;98226.49;119987;1143;65025;-86
2021/01/26 02:16:31;;;;;;;26.33;13.00;;;;;;;-0.58;76.01;98227.45;119978;1144;65274;-86
2021/01/26 02:19:32;;;;;;;26.90;14.57;;;;;;;-0.59;75.95;98232.77;120322;1143;65105;-86
2021/01/26 02:22:26;;;;;;;29.40;13.90;;;;;;;-0.60;76.52;98228.44;120045;1144;65538;-86
2021/01/26 02:25:31;;;;;;;33.47;14.73;;;;;;;-0.62;76.77;98239.00;119878;1143;65085;-87
2021/01/26 02:28:16;;;;;;;25.35;13.65;;;;;;;-0.63;76.90;98233.83;119933;1143;65047;-86
2021/01/26 02:30:42;;;;;;;;;;;;;;;-0.66;76.79;98240.02;119934;1144;65082;-85
2021/01/26 02:33:36;;;;;;;26.53;13.07;;;;;;;-0.69;76.34;98244.55;120116;1144;65149;-87
2021/01/26 02:36:43;;;;;;;26.60;12.03;;;;;;;-0.75;76.72;98244.80;120002;1144;65086;-85
2021/01/26 02:39:57;;;;;;;30.43;13.73;;;;;;;-0.85;76.37;98247.77;119920;1144;65175;-85
2021/01/26 02:42:23;;;;;;;26.97;13.67;;;;;;;-0.96;76.16;98249.94;119868;1147;65252;-87
2021/01/26 02:45:22;;;;;;;22.23;12.50;;;;;;;-0.98;76.20;98256.16;119791;1147;65303;-89
2021/01/26 02:48:03;;;;;;;28.75;13.00;;;;;;;-0.96;76.57;98255.18;120436;1147;65007;-86
2021/01/26 02:50:39;;;;;;;25.93;12.87;;;;;;;-0.91;76.00;98262.87;119881;1146;65107;-86
2021/01/26 02:53:27;;;;;;;26.00;12.57;;;;;;;-0.88;76.07;98262.77;119792;1147;65111;-86
2021/01/26 02:56:09;;;;;;;25.87;13.17;;;;;;;-0.87;76.45;98262.70;119903;1147;65196;-84
2021/01/26 02:58:44;;;;;;;27.00;12.85;;;;;;;-0.85;76.85;98266.11;120014;1147;65068;-86
2021/01/26 03:01:12;;;;;;;23.87;12.57;;;;;;;-0.83;75.98;98266.05;119712;1147;65163;-89
2021/01/26 03:03:53;;;;;;;22.60;12.80;;;;;;;-0.80;77.19;98265.94;119466;1147;65604;-85
2021/01/26 03:06:25;;;;;;;25.93;14.47;;;;;;;-0.77;76.72;98268.42;120072;1147;65108;-84
2021/01/26 03:09:01;;;;;;;27.27;12.57;;;;;;;-0.71;76.11;98275.20;119844;1146;65086;-88
2021/01/26 03:11:35;;;;;;;24.83;12.97;;;;;;;-0.70;76.87;98264.68;119798;1147;65269;-86
2021/01/26 03:14:13;;;;;;;29.50;13.00;;;;;;;-0.63;76.06;98273.16;119772;1147;65240;-87
2021/01/26 03:16:48;;;;;;;22.43;12.20;;;;;;;-0.61;76.70;98276.56;119642;1144;65152;-86
2021/01/26 03:19:25;;;;;;;18.47;10.80;;;;;;;-0.59;76.15;98279.97;120352;1142;64996;-85
2021/01/26 03:21:58;;;;;;;23.47;12.57;;;;;;;-0.58;75.92;98279.90;119909;1144;65092;-86
2021/01/26 03:24:30;;;;;;;23.10;12.33;;;;;;;-0.59;76.09;98286.06;119896;1143;65246;-85
2021/01/26 03:26:57;;;;;;;21.67;12.77;;;;;;;-0.57;76.41;98284.25;119907;1144;65551;-85
2021/01/26 03:29:29;;;;;;;23.77;13.03;;;;;;;-0.55;75.49;98284.19;120229;1142;65066;-86
2021/01/26 03:32:00;;;;;;;29.50;13.80;;;;;;;-0.55;76.29;98281.56;119948;1142;65089;-85
2021/01/26 03:34:27;;;;;;;24.35;13.35;;;;;;;-0.53;75.90;98281.50;119925;1143;65134;-85
2021/01/26 03:36:53;;;;;;;30.63;14.47;;;;;;;-0.51;76.93;98282.28;119943;1144;65249;-84
2021/01/26 03:39:20;;;;;;;23.93;12.77;;;;;;;-0.50;76.23;98287.48;120346;1143;65104;-84
2021/01/26 03:41:47;;;;;;;24.63;13.67;;;;;;;-0.51;76.28;98285.75;119982;1144;65006;-85
2021/01/26 03:44:15;;;;;;;24.55;13.50;;;;;;;-0.52;75.91;98289.30;119947;1141;65090;-86
2021/01/26 03:46:50;;;;;;;25.15;13.35;;;;;;;-0.50;76.42;98292.73;119916;1144;65085;-87
2021/01/26 03:49:44;;;;;;;24.33;12.67;;;;;;;-0.48;76.19;98293.52;119883;1142;65108;-86
2021/01/26 03:52:35;;;;;;;22.73;12.87;;;;;;;-0.47;76.73;98292.59;119933;1143;65557;-86
2021/01/26 03:55:37;;;;;;;23.23;12.20;;;;;;;-0.47;76.71;98286.50;120144;1142;65089;-88
2021/01/26 03:58:26;;;;;;;24.40;12.85;;;;;;;-0.45;75.75;98292.53;120008;1143;65082;-86
2021/01/26 04:00:59;;;;;;;26.70;13.00;;;;;;;-0.41;76.08;98302.00;120171;1144;65166;-86
2021/01/26 04:03:31;;;;;;;26.33;13.23;;;;;;;-0.41;76.52;98294.98;120203;1142;65175;-85
2021/01/26 04:05:59;;;;;;;20.05;11.80;;;;;;;-0.38;76.08;98294.88;120016;1143;65050;-84
2021/01/26 04:08:41;;;;;;;21.30;12.77;;;;;;;-0.38;76.56;98302.73;120104;1144;65503;-85
2021/01/26 04:11:20;;;;;;;25.10;13.87;;;;;;;-0.37;76.69;98299.20;120029;1144;65140;-86
2021/01/26 04:14:04;;;;;;;24.17;12.77;;;;;;;-0.37;76.71;98293.95;120297;1142;65177;-83
2021/01/26 04:16:44;;;;;;;22.50;12.88;;;;;;;-0.36;76.70;98303.52;119887;1144;65115;-86
2021/01/26 04:19:19;;;;;;;21.27;12.23;;;;;;;-0.33;76.83;98299.91;119898;1144;65098;-85
2021/01/26 04:21:50;;;;;;;24.70;13.65;;;;;;;-0.34;76.88;98304.30;119866;1144;65111;-84
2021/01/26 04:24:18;;;;;;;28.30;13.80;;;;;;;-0.33;76.88;98306.01;119905;1144;65186;-84
2021/01/26 04:26:46;;;;;;;28.57;14.40;;;;;;;-0.34;76.40;98306.93;119914;1144;65062;-88
2021/01/26 04:29:13;;;;;;;20.60;11.93;;;;;;;-0.32;76.84;98309.48;120051;1142;65050;-84
2021/01/26 04:31:39;;;;;;;23.97;14.00;;;;;;;-0.33;76.46;98307.78;119982;1143;65127;-84
2021/01/26 04:34:06;;;;;;;24.70;12.50;;;;;;;-0.34;76.45;98301.68;119960;1143;65187;-85
2021/01/26 04:36:32;;;;;;;27.50;15.35;;;;;;;-0.35;76.24;98304.38;119941;1143;65070;-87
2021/01/26 04:38:59;;;;;;;26.48;13.22;;;;;;;-0.34;76.34;98304.30;119904;1142;65191;-88
2021/01/26 04:41:52;;;;;;;26.60;15.10;;;;;;;-0.35;76.52;98307.84;120367;1144;65172;-86
2021/01/26 04:44:41;;;;;;;24.17;13.93;;;;;;;-0.34;76.21;98303.45;119933;1143;65069;-86
2021/01/26 04:47:21;;;;;;;27.87;15.00;;;;;;;-0.35;77.10;98299.98;119896;1143;65114;-85
2021/01/26 04:50:08;;;;;;;34.15;15.00;;;;;;;-0.35;76.59;98292.11;119919;1144;65072;-88
2021/01/26 04:53:05;;;;;;;26.87;13.13;;;;;;;-0.35;77.12;98296.50;119878;1144;65041;-85
2021/01/26 04:55:44;;;;;;;25.80;15.33;;;;;;;-0.35;76.60;98293.87;119960;1142;65111;-84
2021/01/26 04:58:23;;;;;;;25.00;14.53;;;;;;;-0.34;77.14;98299.06;120082;1142;65099;-86
2021/01/26 05:01:23;;;;;;;35.63;17.00;;;;;;;-0.33;77.09;98306.01;120287;1144;65116;-87
2021/01/26 05:04:01;;;;;;;31.33;15.80;;;;;;;-0.33;76.56;98303.39;119928;1142;66387;-87
2021/01/26 05:06:40;;;;;;;33.23;16.53;;;;;;;-0.31;77.20;98309.45;119953;1144;65041;-87
2021/01/26 05:09:15;;;;;;;25.70;13.27;;;;;;;-0.31;76.20;98309.45;120083;1144;65105;-85
2021/01/26 05:11:43;;;;;;;;;;;;;;;-0.29;77.12;98301.51;120106;1144;65070;-88
2021/01/26 05:14:27;;;;;;;29.40;16.60;;;;;;;-0.28;76.49;98317.17;119917;1144;65452;-86
2021/01/26 05:17:18;;;;;;;29.82;13.98;;;;;;;-0.26;76.74;98317.11;119897;1143;65012;-85
2021/01/26 05:20:06;;;;;;;29.43;16.10;;;;;;;-0.23;76.48;98334.52;119916;1144;65139;-87
2021/01/26 05:22:54;;;;;;;35.55;17.00;;;;;;;-0.24;77.16;98320.55;119885;1144;65161;-88
2021/01/26 05:25:23;;;;;;;28.23;13.90;;;;;;;-0.22;76.88;98329.20;120243;1143;65105;-84
2021/01/26 05:27:51;;;;;;;34.00;17.33;;;;;;;-0.22;76.93;98321.33;119936;1144;65247;-88
2021/01/26 05:30:29;;;;;;;26.37;14.57;;;;;;;-0.22;76.06;98320.48;120011;1143;65029;-84
2021/01/26 05:33:03;;;;;;;29.90;17.07;;;;;;;-0.23;76.64;98316.15;119977;1144;65194;-86
2021/01/26 05:35:29;;;;;;;26.67;15.10;;;;;;;-0.23;76.99;98316.15;119923;1144;65133;-85
2021/01/26 05:37:56;;;;;;;36.80;17.50;;;;;;;-0.27;76.47;98326.75;119961;1144;65162;-86
2021/01/26 05:40:30;;;;;;;28.10;15.73;;;;;;;-0.30;76.43;98324.27;119887;1144;65111;-86
2021/01/26 05:43:00;;;;;;;32.63;15.77;;;;;;;-0.32;76.69;98320.86;119896;1144;65098;-84
2021/01/26 05:45:43;;;;;;;28.03;14.50;;;;;;;-0.34;76.20;98324.44;119900;1144;65092;-86
2021/01/26 05:48:19;;;;;;;27.43;14.83;;;;;;;-0.35;76.56;98325.36;119931;1144;65098;-86
2021/01/26 05:50:48;;;;;;;30.50;15.90;;;;;;;-0.35;76.60;98328.84;119974;1143;65097;-84
2021/01/26 05:53:29;;;;;;;31.05;17.30;;;;;;;-0.35;76.65;98325.36;119952;1144;65124;-84
2021/01/26 05:56:13;;;;;;;33.05;15.30;;;;;;;-0.33;77.00;98336.64;119933;1144;65092;-85
2021/01/26 05:58:46;;;;;;;31.63;16.03;;;;;;;-0.34;76.99;98335.79;119861;1144;65065;-86
2021/01/26 06:01:28;;;;;;;32.00;15.93;;;;;;;-0.33;75.93;98334.02;119925;1144;65120;-88
2021/01/26 06:04:08;;;;;;;26.33;14.23;;;;;;;-0.32;77.05;98339.23;119907;1144;65053;-85
2021/01/26 06:06:57;;;;;;;33.50;17.33;;;;;;;-0.30;76.52;98331.29;119957;1142;65096;-87
2021/01/26 06:09:29;;;;;;;31.90;15.45;;;;;;;-0.32;77.05;98336.60;119926;1144;65076;-88
2021/01/26 06:12:21;;;;;;;27.10;13.93;;;;;;;-0.31;76.45;98335.69;119956;1144;65232;-85
2021/01/26 06:14:59;;;;;;;41.03;19.47;;;;;;;-0.34;76.17;98333.16;119896;1144;65191;-88
2021/01/26 06:17:28;;;;;;;37.40;18.10;;;;;;;-0.34;77.06;98343.66;119970;1142;65127;-84
2021/01/26 06:20:06;;;;;;;34.63;17.60;;;;;;;-0.36;76.24;98352.52;119906;1144;65085;-87
2021/01/26 06:22:33;;;;;;;40.33;18.80;;;;;;;-0.39;77.12;98348.23;120258;1142;65197;-84
2021/01/26 06:25:04;;;;;;;30.43;17.80;;;;;;;-0.40;76.12;98350.91;120121;1144;65180;-84
2021/01/26 06:27:39;;;;;;;29.97;16.60;;;;;;;-0.43;77.02;98351.91;120136;1143;65154;-86
2021/01/26 06:30:14;;;;;;;44.97;18.17;;;;;;;-0.42;76.09;98364.09;120067;1144;65101;-85
2021/01/26 06:32:43;;;;;;;32.10;14.95;;;;;;;-0.41;76.09;98363.18;120016;1143;65112;-86
2021/01/26 06:35:13;;;;;;;31.43;17.07;;;;;;;-0.39;77.08;98363.11;120025;1144;65076;-86
2021/01/26 06:37:47;;;;;;;32.85;15.20;;;;;;;-0.41;76.22;98352.69;119931;1143;65188;-86
2021/01/26 06:40:19;;;;;;;35.13;18.30;;;;;;;-0.41;76.32;98355.31;119869;1143;65150;-87
2021/01/26 06:43:04;;;;;;;27.27;14.80;;;;;;;-0.40;77.05;98356.16;119961;1144;65069;-85
2021/01/26 06:46:07;;;;;;;27.57;16.17;;;;;;;-0.39;76.65;98366.59;119916;1144;65100;-86
2021/01/26 06:49:08;;;;;;;37.97;21.20;;;;;;;-0.38;76.44;98367.44;119917;1143;65426;-86
2021/01/26 06:51:59;;;;;;;23.60;12.40;;;;;;;-0.36;76.99;98374.36;119940;1144;65090;-88
2021/01/26 06:55:11;;;;;;;25.80;11.17;;;;;;;-0.35;75.95;98375.20;119874;1144;65078;-87
2021/01/26 06:58:01;;;;;;;21.30;11.17;;;;;;;-0.36;76.88;98384.00;119947;1143;65088;-85
2021/01/26 07:00:59;;;;;;;23.40;10.80;;;;;;;-0.36;76.69;98376.13;120218;1142;65082;-84
2021/01/26 07:04:06;;;;;;;21.97;11.60;;;;;;;-0.38;76.71;98381.44;119982;1144;65125;-84
2021/01/26 07:06:52;;;;;;;37.27;14.87;;;;;;;-0.40;76.04;98383.25;120224;1143;65086;-85
2021/01/26 07:09:44;;;;;;;48.07;16.73;;;;;;;-0.43;76.19;98383.38;120467;1144;65082;-84
2021/01/26 07:12:31;;;;;;;22.47;11.70;;;;;;;-0.40;76.32;98382.39;120241;1142;65063;-83
2021/01/26 07:15:13;;;;;;;20.27;9.70;;;;;;;-0.39;76.60;98379.70;119945;1145;65182;-85
2021/01/26 07:17:52;;;;;;;16.33;10.07;;;;;;;-0.35;76.00;98386.55;119896;1147;65097;-85
2021/01/26 07:20:32;;;;;;;21.80;10.67;;;;;;;-0.31;75.97;98397.80;119887;1147;65103;-86
2021/01/26 07:23:05;;;;;;;19.73;11.70;;;;;;;-0.27;76.19;98399.37;119769;1147;65281;-86
2021/01/26 07:25:54;;;;;;;24.07;12.10;;;;;;;-0.22;76.14;98404.45;119860;1147;65136;-84
2021/01/26 07:28:30;;;;;;;19.95;10.15;;;;;;;-0.19;75.98;98399.06;119767;1147;65155;-85
2021/01/26 07:31:04;;;;;;;25.17;11.63;;;;;;;-0.18;75.64;98411.30;119871;1147;65075;-84
2021/01/26 07:33:47;;;;;;;22.30;11.17;;;;;;;-0.17;76.04;98418.25;120045;1145;65232;-86
2021/01/26 07:36:32;;;;;;;29.33;12.97;;;;;;;-0.19;76.44;98420.05;119990;1146;65201;-88
2021/01/26 07:39:34;;;;;;;24.85;11.50;;;;;;;-0.16;76.14;98419.95;119751;1146;65084;-85
2021/01/26 07:42:07;;;;;;;24.87;11.57;;;;;;;-0.13;75.79;98417.20;119954;1147;65159;-84
2021/01/26 07:44:46;;;;;;;23.35;12.30;;;;;;;-0.11;76.26;98412.77;119988;1146;65234;-86
2021/01/26 07:47:28;;;;;;;35.33;12.83;;;;;;;-0.09;76.18;98421.42;119929;1147;65251;-85
2021/01/26 07:50:18;;;;;;;27.87;11.93;;;;;;;-0.11;75.75;98423.27;119816;1145;65239;-84
2021/01/26 07:52:50;;;;;;;34.47;13.23;;;;;;;-0.14;76.29;98424.22;119909;1145;65104;-89
2021/01/26 07:55:26;;;;;;;27.93;13.13;;;;;;;-0.14;76.34;98426.84;120216;1144;65529;-84
2021/01/26 07:58:06;;;;;;;24.10;11.60;;;;;;;-0.13;76.32;98428.55;120119;1142;65018;-84
2021/01/26 08:00:41;;;;;;;22.97;12.53;;;;;;;-0.10;76.01;98427.59;120263;1142;65050;-85
2021/01/26 08:03:09;;;;;;;23.80;11.80;;;;;;;-0.07;76.25;98430.93;119951;1144;65258;-85
2021/01/26 08:05:51;;;;;;;18.07;9.37;;;;;;;-0.02;75.33;98441.26;120079;1143;65181;-87
2021/01/26 08:08:22;;;;;;;25.10;11.45;;;;;;;0.04;75.51;98437.54;120094;1143;65085;-86
2021/01/26 08:11:10;;;;;;;21.53;11.10;;;;;;;0.05;75.29;98440.09;119992;1144;65095;-86
2021/01/26 08:13:45;;;;;;;17.93;10.00;;;;;;;0.12;74.91;98438.94;120174;1142;65172;-85
2021/01/26 08:16:22;;;;;;;20.10;10.27;;;;;;;0.20;74.76;98430.78;120076;1144;65002;-85
2021/01/26 08:18:50;;;;;;;16.55;9.25;;;;;;;0.17;74.45;98436.13;120109;1143;65088;-84
2021/01/26 08:21:28;;;;;;;14.80;8.90;;;;;;;0.17;74.56;98442.23;120117;1144;65102;-85
2021/01/26 08:24:22;;;;;;;13.97;8.20;;;;;;;0.28;74.17;98433.09;120034;1144;65143;-90
2021/01/26 08:26:55;;;;;;;23.90;9.17;;;;;;;0.28;75.35;98431.31;120151;1144;65130;-86
2021/01/26 08:30:12;;;;;;;15.73;8.73;;;;;;;0.37;74.63;98441.43;120264;1143;65216;-86
2021/01/26 08:32:43;;;;;;;20.37;9.83;;;;;;;0.50;74.72;98436.53;120782;1146;65071;-84
2021/01/26 08:35:10;;;;;;;14.83;8.73;;;;;;;0.57;74.37;98451.12;119875;1146;65167;-84
2021/01/26 08:37:43;;;;;;;14.90;8.47;;;;;;;0.66;74.61;98437.61;119892;1145;65085;-86
2021/01/26 08:40:11;;;;;;;13.50;8.63;;;;;;;0.76;73.53;98438.95;119896;1145;65098;-85
2021/01/26 08:42:41;;;;;;;14.37;8.57;;;;;;;0.84;74.48;98443.88;119922;1145;65073;-84
2021/01/26 08:45:26;;;;;;;13.80;7.90;;;;;;;0.95;73.35;98435.50;119833;1145;65117;-83
2021/01/26 08:47:53;;;;;;;19.25;8.78;;;;;;;1.01;73.62;98438.72;119551;1145;65139;-83
2021/01/26 08:50:31;;;;;;;15.07;9.23;;;;;;;0.98;73.69;98444.13;119634;1147;65069;-86
2021/01/26 08:53:13;;;;;;;15.93;9.47;;;;;;;1.06;73.95;98447.27;119542;1146;65187;-85
2021/01/26 08:55:45;;;;;;;17.00;9.00;;;;;;;1.11;74.54;98447.08;119714;1145;65594;-83
2021/01/26 08:58:49;;;;;;;19.70;9.90;;;;;;;1.17;74.02;98445.97;119840;1145;65247;-84
2021/01/26 09:01:34;;;;;;;21.47;9.93;;;;;;;1.22;74.17;98455.36;119813;1145;65363;-85
2021/01/26 09:04:16;;;;;;;16.33;9.37;;;;;;;1.24;74.03;98457.92;119687;1145;65197;-85
2021/01/26 09:06:46;;;;;;;16.57;8.17;;;;;;;1.23;73.58;98453.59;119562;1145;65949;-82
2021/01/26 09:09:20;;;;;;;17.90;9.47;;;;;;;1.21;74.11;98458.92;119717;1144;65085;-84
2021/01/26 09:11:55;;;;;;;14.80;8.75;;;;;;;1.35;73.93;98460.94;119940;1144;65190;-83
2021/01/26 09:14:34;;;;;;;17.05;8.58;;;;;;;1.45;73.79;98458.73;119920;1144;65095;-83
2021/01/26 09:17:17;;;;;;;14.20;8.47;;;;;;;1.52;73.12;98454.91;120211;1143;64996;-85
2021/01/26 09:19:50;;;;;;;14.97;8.43;;;;;;;1.59;73.27;98459.84;119883;1143;65062;-89
2021/01/26 09:22:24;;;;;;;17.97;9.63;;;;;;;1.56;73.49;98454.70;120050;1144;65220;-84
2021/01/26 09:25:05;;;;;;;17.25;8.30;;;;;;;1.66;74.10;98456.94;119946;1144;65143;-86
2021/01/26 09:27:36;;;;;;;18.83;9.87;;;;;;;1.74;74.23;98460.92;119948;1143;65185;-84
2021/01/26 09:30:37;;;;;;;20.87;9.87;;;;;;;1.83;73.43;98455.21;120012;1145;65190;-88
2021/01/26 09:33:27;;;;;;;14.83;8.17;;;;;;;1.68;73.50;98463.83;119878;1144;65062;-85
2021/01/26 09:36:00;;;;;;;21.55;11.20;;;;;;;1.68;73.36;98462.98;119963;1144;65159;-84
2021/01/26 09:38:32;;;;;;;17.30;10.43;;;;;;;1.77;73.65;98457.28;119958;1144;65105;-84
2021/01/26 09:41:02;;;;;;;15.80;8.73;;;;;;;1.89;72.68;98449.66;119985;1144;65101;-84
2021/01/26 09:43:37;;;;;;;15.23;9.33;;;;;;;1.95;73.36;98453.80;120092;1143;65237;-85
2021/01/26 09:46:35;;;;;;;13.80;7.33;;;;;;;2.00;72.60;98458.85;119917;1144;65484;-84
2021/01/26 09:49:18;;;;;;;18.03;8.60;;;;;;;2.02;73.48;98454.36;119948;1143;65091;-87
2021/01/26 09:52:09;;;;;;;22.50;8.83;;;;;;;1.98;72.76;98452.81;119903;1143;65133;-84
2021/01/26 09:54:39;;;;;;;16.17;7.30;;;;;;;1.90;72.57;98456.63;119947;1143;65124;-82
2021/01/26 09:57:10;;;;;;;14.80;7.27;;;;;;;1.90;73.14;98458.41;119984;1144;65188;-85
2021/01/26 09:59:38;;;;;;;18.67;7.67;;;;;;;1.94;72.82;98464.41;119973;1144;65104;-83
2021/01/26 10:02:09;;;;;;;16.97;7.30;;;;;;;1.86;72.20;98462.13;120029;1143;65153;-84
2021/01/26 10:04:39;;;;;;;12.90;6.43;;;;;;;1.87;72.48;98459.42;120122;1143;65094;-84
2021/01/26 10:07:08;;;;;;;13.30;6.43;;;;;;;1.98;73.37;98452.81;119925;1143;65538;-86
2021/01/26 10:09:36;;;;;;;12.07;5.60;;;;;;;2.09;72.88;98464.52;119992;1144;65088;-84
2021/01/26 10:12:28;;;;;;;12.80;5.67;;;;;;;2.13;72.56;98459.98;120079;1142;65127;-86
2021/01/26 10:15:31;;;;;;;18.13;9.27;;;;;;;2.20;72.74;98466.66;119916;1143;65222;-86
2021/01/26 10:18:15;;;;;;;11.03;5.40;;;;;;;2.50;72.44;98466.97;119891;1144;65158;-84
2021/01/26 10:20:44;;;;;;;13.23;5.47;;;;;;;2.66;72.36;98459.15;119869;1144;65188;-86
2021/01/26 10:23:28;;;;;;;8.20;5.20;;;;;;;2.74;72.24;98461.44;119948;1144;65063;-83
2021/01/26 10:26:13;;;;;;;10.13;5.17;;;;;;;2.78;72.08;98458.55;119903;1144;64999;-84
2021/01/26 10:28:58;;;;;;;10.43;5.53;;;;;;;2.82;71.83;98453.98;120062;1143;65079;-84
2021/01/26 10:31:25;;;;;;;13.00;5.55;;;;;;;2.88;72.52;98457.16;120011;1142;65094;-87
2021/01/26 10:33:52;;;;;;;11.73;5.67;;;;;;;2.98;72.75;98450.47;120008;1144;65161;-83
2021/01/26 10:36:33;;;;;;;9.30;4.80;;;;;;;3.04;72.16;98451.09;119986;1144;65060;-84
2021/01/26 10:39:19;;;;;;;10.17;5.13;;;;;;;3.10;71.62;98446.36;119973;1143;65064;-87
2021/01/26 10:41:45;;;;;;;;;;;;;;;3.15;72.47;98444.34;119970;1144;65098;-83
2021/01/26 10:44:15;;;;;;;14.30;4.93;;;;;;;3.09;71.05;98449.08;119944;1143;65072;-86
2021/01/26 10:46:46;;;;;;;9.67;4.70;;;;;;;3.02;71.44;98442.42;120073;1144;65104;-84
2021/01/26 10:49:35;;;;;;;17.70;5.70;;;;;;;3.03;71.89;98441.48;120565;1144;65075;-82
2021/01/26 10:52:08;;;;;;;15.17;5.60;;;;;;;3.08;70.83;98435.05;120075;1143;65108;-85
2021/01/26 10:54:36;;;;;;;11.90;5.20;;;;;;;3.05;70.04;98435.19;120015;1144;65181;-82
2021/01/26 10:57:03;;;;;;;13.27;5.13;;;;;;;2.93;70.66;98436.69;120002;1144;65092;-84
2021/01/26 10:59:30;;;;;;;6.17;4.10;;;;;;;3.02;71.47;98437.99;119913;1144;65075;-87
2021/01/26 11:01:57;;;;;;;15.10;4.13;;;;;;;3.14;71.51;98440.00;119915;1142;65146;-83
2021/01/26 11:04:24;;;;;;;7.40;4.60;;;;;;;3.26;71.23;98441.16;120030;1144;65082;-85
2021/01/26 11:06:51;;;;;;;14.60;4.63;;;;;;;3.24;71.17;98440.36;119841;1144;65125;-84
2021/01/26 11:09:18;;;;;;;14.03;4.97;;;;;;;3.16;70.60;98434.64;119971;1144;65522;-84
2021/01/26 11:11:45;;;;;;;14.40;5.37;;;;;;;3.15;70.07;98441.70;119978;1144;65554;-84
2021/01/26 11:14:12;;;;;;;9.93;4.13;;;;;;;3.16;70.82;98432.84;119918;1144;65035;-83
2021/01/26 11:16:39;;;;;;;7.83;4.30;;;;;;;3.22;71.05;98437.81;119978;1144;64999;-85
2021/01/26 11:19:06;;;;;;;13.90;4.50;;;;;;;3.29;70.42;98432.21;119938;1144;65156;-89
2021/01/26 11:21:33;;;;;;;9.13;4.47;;;;;;;3.26;67.17;98427.96;119850;1144;65095;-86
2021/01/26 11:24:00;;;;;;;9.13;4.47;;;;;;;3.21;69.67;98429.98;119769;1144;66746;-83
2021/01/26 11:26:27;;;;;;;12.20;4.73;;;;;;;3.13;67.63;98433.03;119772;1143;65111;-83
2021/01/26 11:28:55;;;;;;;9.80;4.93;;;;;;;3.04;69.09;98428.20;119799;1144;65127;-83
2021/01/26 11:31:21;;;;;;;16.20;5.60;;;;;;;3.16;69.61;98432.00;119758;1142;65165;-84
2021/01/26 11:33:48;;;;;;;8.40;4.13;;;;;;;3.15;66.45;98423.23;119947;1143;65142;-83
2021/01/26 11:36:17;;;;;;;6.47;4.33;;;;;;;3.05;68.86;98426.42;119887;1144;65152;-84
2021/01/26 11:38:45;;;;;;;21.57;9.07;;;;;;;3.03;69.81;98428.30;119778;1143;65163;-82
2021/01/26 11:41:12;;;;;;;30.67;12.67;;;;;;;3.15;70.48;98425.02;119840;1144;64990;-85
2021/01/26 11:43:39;;;;;;;11.70;4.87;;;;;;;3.21;69.34;98422.06;119719;1144;65092;-85
2021/01/26 11:46:06;;;;;;;15.83;6.23;;;;;;;3.27;70.10;98427.02;119817;1144;65060;-84
2021/01/26 11:48:34;;;;;;;9.20;3.37;;;;;;;3.38;68.82;98422.04;119828;1142;65103;-86
2021/01/26 11:51:03;;;;;;;12.17;4.90;;;;;;;3.42;69.51;98423.56;119856;1144;65191;-85
2021/01/26 11:53:30;;;;;;;19.43;7.87;;;;;;;3.55;70.04;98412.34;119875;1143;65059;-84